Time;durP1;ratioP1;P1;durP2;ratioP2;P2;SDS_P1;SDS_P2;PMS_P1;PMS_P2;Temp;Humidity;BMP_temperature;BMP_pressure;BME280_temperature;BME280_humidity;BME280_pressure;Samples;Min_cycle;Max_cycle;Signal;HPM_P1;HPM_P2
2022/11/05 00:10:45;;;;;;;1999.90;999.90;;;8.90;99.90;;;;;;5054366;28;20845;-66
2022/11/05 00:19:08;;;;;;;1999.90;999.90;;;8.80;99.90;;;;;;4992881;28;21060;-65
2022/11/05 00:27:07;;;;;;;1999.90;999.90;;;8.70;99.90;;;;;;5054485;28;20445;-66
2022/11/05 00:29:33;;;;;;;1999.90;999.90;;;8.70;99.90;;;;;;5054194;28;20401;-66
2022/11/05 00:31:58;;;;;;;1999.90;999.90;;;8.70;99.90;;;;;;5054243;28;20434;-66
2022/11/05 00:34:24;;;;;;;1999.90;999.90;;;8.60;99.90;;;;;;5054481;28;20409;-66
2022/11/05 00:36:49;;;;;;;1999.90;999.90;;;8.60;99.90;;;;;;5053819;28;20560;-65
2022/11/05 00:39:15;;;;;;;1999.90;999.90;;;8.50;99.90;;;;;;5053983;28;20180;-66
2022/11/05 00:41:40;;;;;;;1999.90;999.90;;;8.50;99.90;;;;;;5053883;28;20286;-66
2022/11/05 00:49:28;;;;;;;1999.90;999.90;;;8.50;99.90;;;;;;5061055;28;20644;-66
2022/11/05 00:49:36;;;;;;;1999.90;999.90;;;8.60;99.90;;;;;;5060178;28;20418;-65
2022/11/05 00:54:45;;;;;;;1999.90;999.90;;;8.50;99.90;;;;;;5061442;28;20183;-66
2022/11/05 00:57:11;;;;;;;1999.90;999.90;;;8.40;99.90;;;;;;5060372;28;20445;-66
2022/11/05 00:59:36;;;;;;;1999.90;999.90;;;8.40;99.90;;;;;;5060801;28;20882;-66
2022/11/05 01:02:02;;;;;;;1999.90;999.90;;;8.40;99.90;;;;;;5060770;28;20208;-66
2022/11/05 01:04:28;;;;;;;1999.90;999.90;;;8.40;99.90;;;;;;5058596;28;20614;-66
2022/11/05 01:06:54;;;;;;;1999.90;999.90;;;8.30;99.90;;;;;;5058085;28;20184;-65
2022/11/05 01:09:19;;;;;;;1999.90;999.90;;;8.30;99.90;;;;;;5058222;28;20592;-65
2022/11/05 01:11:45;;;;;;;1999.90;999.90;;;8.20;99.90;;;;;;5058135;28;20438;-65
2022/11/05 01:14:14;;;;;;;1999.90;999.90;;;8.20;99.90;;;;;;5058192;28;20728;-65
2022/11/05 01:16:41;;;;;;;1999.90;999.90;;;8.10;99.90;;;;;;5057960;28;20672;-66
2022/11/05 01:19:08;;;;;;;1999.90;999.90;;;8.10;99.90;;;;;;5058097;28;20449;-65
2022/11/05 01:21:34;;;;;;;1999.90;999.90;;;8.20;99.90;;;;;;5057998;28;20438;-66
2022/11/05 01:24:00;;;;;;;1999.90;999.90;;;8.10;99.90;;;;;;5058901;28;20421;-66
2022/11/05 01:26:26;;;;;;;1999.90;999.90;;;8.20;99.90;;;;;;5058892;28;20171;-65
2022/11/05 01:28:53;;;;;;;1999.90;999.90;;;8.10;99.90;;;;;;5058955;28;21078;-66
2022/11/05 01:31:19;;;;;;;1999.90;999.90;;;8.20;99.90;;;;;;5058976;28;20436;-65
2022/11/05 01:33:44;;;;;;;1999.90;999.90;;;8.20;99.90;;;;;;5058102;28;20402;-65
2022/11/05 01:36:10;;;;;;;1999.90;999.90;;;8.30;99.90;;;;;;5060992;28;20779;-65
2022/11/05 01:38:36;;;;;;;1999.90;999.90;;;8.20;99.90;;;;;;5058525;28;20169;-65
2022/11/05 01:41:02;;;;;;;1999.90;999.90;;;8.20;99.90;;;;;;5057923;28;20192;-66
2022/11/05 01:43:48;;;;;;;1999.90;999.90;;;8.20;99.90;;;;;;5060008;28;20534;-65
2022/11/05 01:46:16;;;;;;;1999.90;999.90;;;8.10;99.90;;;;;;5057919;28;20171;-65
2022/11/05 01:48:42;;;;;;;1999.90;999.90;;;8.10;99.90;;;;;;5058240;28;20887;-66
2022/11/05 01:51:12;;;;;;;1999.90;999.90;;;8.10;99.90;;;;;;5060586;28;20426;-66
2022/11/05 01:53:48;;;;;;;1999.90;999.90;;;8.10;99.90;;;;;;5060097;28;20159;-66
2022/11/05 01:56:21;;;;;;;1999.90;999.90;;;8.10;99.90;;;;;;5057081;28;20762;-66
2022/11/05 01:59:00;;;;;;;1999.90;999.90;;;8.00;99.90;;;;;;5057511;28;20951;-65
2022/11/05 02:01:26;;;;;;;1999.90;999.90;;;7.90;99.90;;;;;;5057567;28;20430;-66
2022/11/05 02:03:56;;;;;;;1999.90;999.90;;;7.90;99.90;;;;;;5057161;28;20404;-66
2022/11/05 02:06:22;;;;;;;1999.90;999.90;;;7.90;99.90;;;;;;5054911;28;20424;-65
2022/11/05 02:09:11;;;;;;;1999.90;999.90;;;7.90;99.90;;;;;;5054915;28;20418;-66
2022/11/05 02:11:37;;;;;;;1999.90;999.90;;;7.90;99.90;;;;;;5055225;28;20284;-65
2022/11/05 02:14:04;;;;;;;1999.90;999.90;;;8.00;99.90;;;;;;5056178;28;20923;-66
2022/11/05 02:16:38;;;;;;;1999.90;999.90;;;8.00;99.90;;;;;;5057708;28;20458;-65
2022/11/05 02:19:28;;;;;;;1999.90;999.90;;;7.90;99.90;;;;;;5057416;28;20973;-64
2022/11/05 02:22:18;;;;;;;1999.90;999.90;;;8.00;99.90;;;;;;5054795;28;20925;-65
2022/11/05 02:25:27;;;;;;;1999.90;999.90;;;8.00;99.90;;;;;;5054259;28;20434;-65
2022/11/05 02:28:11;;;;;;;1999.90;999.90;;;7.90;99.90;;;;;;5054583;28;20916;-66
2022/11/05 02:30:52;;;;;;;1999.90;999.90;;;7.90;99.90;;;;;;5057719;28;20423;-66
2022/11/05 02:33:29;;;;;;;1999.90;999.90;;;8.00;99.90;;;;;;5057423;28;20501;-65
2022/11/05 02:36:15;;;;;;;1999.90;999.90;;;8.00;99.90;;;;;;5057445;28;20551;-66
2022/11/05 02:38:59;;;;;;;1999.90;999.90;;;8.10;99.90;;;;;;5049772;28;20432;-66
2022/11/05 02:41:57;;;;;;;1999.90;999.90;;;8.10;99.90;;;;;;5057056;28;20423;-65
2022/11/05 02:44:43;;;;;;;1999.90;999.90;;;8.10;99.90;;;;;;5056905;28;20403;-66
2022/11/05 02:47:15;;;;;;;1999.90;999.90;;;8.10;99.90;;;;;;5056379;28;20810;-66
2022/11/05 02:49:52;;;;;;;1999.90;999.90;;;8.10;99.90;;;;;;5056912;28;20398;-66
2022/11/05 02:52:43;;;;;;;1999.90;999.90;;;8.10;99.90;;;;;;5055472;28;20460;-65
2022/11/05 02:55:15;;;;;;;1999.90;999.90;;;8.10;99.90;;;;;;5054273;28;20424;-66
2022/11/05 02:57:45;;;;;;;1999.90;999.90;;;8.10;99.90;;;;;;5054652;28;20999;-64
2022/11/05 03:00:48;;;;;;;1999.90;999.90;;;8.20;99.90;;;;;;5054092;28;20498;-66
2022/11/05 03:03:16;;;;;;;1999.90;999.90;;;8.20;99.90;;;;;;5053617;28;20444;-65
2022/11/05 03:06:00;;;;;;;1999.90;999.90;;;8.20;99.90;;;;;;5053493;28;20461;-65
2022/11/05 03:08:45;;;;;;;1999.90;999.90;;;8.20;99.90;;;;;;5054039;28;20410;-66
2022/11/05 03:11:18;;;;;;;1999.90;999.90;;;8.20;99.90;;;;;;5054525;28;20422;-65
2022/11/05 03:13:43;;;;;;;1999.90;999.90;;;8.20;99.90;;;;;;5054024;28;20467;-65
2022/11/05 03:16:17;;;;;;;1999.90;999.90;;;8.20;99.90;;;;;;5054243;28;20810;-66
2022/11/05 03:19:16;;;;;;;1999.90;999.90;;;8.20;99.90;;;;;;5054069;28;20179;-65
2022/11/05 03:21:51;;;;;;;1999.90;999.90;;;8.10;99.90;;;;;;5037467;28;20462;-66
2022/11/05 03:24:25;;;;;;;1999.90;999.90;;;8.10;99.90;;;;;;5053869;28;20409;-65
2022/11/05 03:27:25;;;;;;;1999.90;999.90;;;8.00;99.90;;;;;;5053843;28;20911;-65
2022/11/05 03:29:58;;;;;;;1999.90;999.90;;;7.90;99.90;;;;;;5045651;28;20463;-65
2022/11/05 03:32:26;;;;;;;1999.90;999.90;;;8.00;99.90;;;;;;5053127;28;20409;-65
2022/11/05 03:35:00;;;;;;;1999.90;999.90;;;8.00;99.90;;;;;;5054131;28;20585;-66
2022/11/05 03:37:28;;;;;;;1999.90;999.90;;;8.00;99.90;;;;;;5055324;28;20450;-65
2022/11/05 03:39:57;;;;;;;1999.90;999.90;;;8.00;99.90;;;;;;5054757;28;20502;-66
2022/11/05 03:42:27;;;;;;;1999.90;999.90;;;8.00;99.90;;;;;;5052763;28;20404;-65
2022/11/05 03:44:56;;;;;;;1999.90;999.90;;;7.90;99.90;;;;;;5052672;28;20412;-65
2022/11/05 03:47:27;;;;;;;1999.90;999.90;;;8.00;99.90;;;;;;5052424;28;20449;-66
2022/11/05 03:50:11;;;;;;;1999.90;999.90;;;7.90;99.90;;;;;;5052941;28;20925;-65
2022/11/05 03:52:44;;;;;;;1999.90;999.90;;;7.90;99.90;;;;;;5052556;28;20947;-65
2022/11/05 03:55:10;;;;;;;1999.90;999.90;;;7.90;99.90;;;;;;5052840;28;20407;-66
2022/11/05 03:57:40;;;;;;;1999.90;999.90;;;7.80;99.90;;;;;;5053881;28;20453;-66
2022/11/05 04:00:08;;;;;;;1999.90;999.90;;;7.90;99.90;;;;;;5053629;28;20540;-66
2022/11/05 04:02:34;;;;;;;1999.90;999.90;;;7.90;99.90;;;;;;5055672;28;20953;-65
2022/11/05 04:04:59;;;;;;;1999.90;999.90;;;7.90;99.90;;;;;;5055804;28;20429;-66
2022/11/05 04:18:21;;;;;;;1999.90;999.90;;;7.90;99.90;;;;;;5053705;28;20509;-66
2022/11/05 04:26:15;;;;;;;1999.90;999.90;;;7.80;99.90;;;;;;5052958;28;20452;-66
2022/11/05 04:31:25;;;;;;;1999.90;999.90;;;7.80;99.90;;;;;;5051967;28;20209;-65
2022/11/05 04:33:51;;;;;;;1999.90;999.90;;;7.80;99.90;;;;;;5053507;28;20491;-66
2022/11/05 04:36:18;;;;;;;1999.90;999.90;;;7.70;99.90;;;;;;5052335;28;20549;-65
2022/11/05 04:38:43;;;;;;;1999.90;999.90;;;7.70;99.90;;;;;;5051619;28;20160;-66
2022/11/05 04:41:14;;;;;;;1999.90;999.90;;;7.70;99.90;;;;;;5051718;28;20418;-66
2022/11/05 04:43:40;;;;;;;1999.90;999.90;;;7.70;99.90;;;;;;5053933;28;20286;-66
2022/11/05 04:46:05;;;;;;;1999.90;999.90;;;7.70;99.90;;;;;;5054510;28;20447;-65
2022/11/05 04:48:31;;;;;;;1999.90;999.90;;;7.70;99.90;;;;;;5053154;28;20175;-66
2022/11/05 04:50:57;;;;;;;1999.90;999.90;;;7.70;99.90;;;;;;5052073;28;20831;-66
2022/11/05 04:53:22;;;;;;;1999.90;999.90;;;7.70;99.90;;;;;;5053925;28;20161;-66
2022/11/05 04:55:48;;;;;;;1999.90;999.90;;;7.60;99.90;;;;;;5054610;28;20163;-65
2022/11/05 04:58:13;;;;;;;1999.90;999.90;;;7.60;99.90;;;;;;5053760;28;20617;-65
2022/11/05 05:00:39;;;;;;;1999.90;999.90;;;7.60;99.90;;;;;;5051619;28;20192;-65
2022/11/05 05:03:04;;;;;;;1999.90;999.90;;;7.60;99.90;;;;;;5053959;28;20197;-66
2022/11/05 05:05:30;;;;;;;1999.90;999.90;;;7.50;99.90;;;;;;5054628;28;20171;-66
2022/11/05 05:08:03;;;;;;;1999.90;999.90;;;7.50;99.90;;;;;;5054148;28;20203;-66
2022/11/05 05:10:29;;;;;;;1999.90;999.90;;;7.50;99.90;;;;;;5054694;28;20215;-66
2022/11/05 05:12:55;;;;;;;1999.90;999.90;;;7.40;99.90;;;;;;5052829;28;20413;-65
2022/11/05 05:15:21;;;;;;;1999.90;999.90;;;7.40;99.90;;;;;;5051617;28;20460;-65
2022/11/05 05:17:51;;;;;;;1999.90;999.90;;;7.30;99.90;;;;;;5051724;28;20425;-65
2022/11/05 05:23:01;;;;;;;1999.90;999.90;;;7.40;99.90;;;;;;5051592;28;20443;-65
2022/11/05 05:25:26;;;;;;;1999.90;999.90;;;7.40;99.90;;;;;;5051425;28;20493;-66
2022/11/05 05:27:54;;;;;;;1999.90;999.90;;;7.40;99.90;;;;;;5051030;28;20191;-65
2022/11/05 05:30:20;;;;;;;1999.90;999.90;;;7.40;99.90;;;;;;5054569;28;20330;-65
2022/11/05 05:32:46;;;;;;;1999.90;999.90;;;7.30;99.90;;;;;;5055178;28;20429;-65
2022/11/05 05:35:11;;;;;;;1999.90;999.90;;;7.40;99.90;;;;;;5056972;28;20181;-66
2022/11/05 05:37:37;;;;;;;1999.90;999.90;;;7.40;99.90;;;;;;5058392;28;20557;-66
2022/11/05 05:40:03;;;;;;;1999.90;999.90;;;7.30;99.90;;;;;;5058435;28;20251;-65
2022/11/05 05:42:28;;;;;;;1999.90;999.90;;;7.30;99.90;;;;;;5058354;28;20173;-65
2022/11/05 05:44:54;;;;;;;1999.90;999.90;;;7.20;99.90;;;;;;5057846;28;20433;-66
2022/11/05 05:47:19;;;;;;;1999.90;999.90;;;7.20;99.90;;;;;;5054659;28;20207;-65
2022/11/05 05:49:45;;;;;;;1999.90;999.90;;;7.20;99.90;;;;;;5054787;28;20618;-65
2022/11/05 05:52:11;;;;;;;1999.90;999.90;;;7.20;99.90;;;;;;5054912;28;20196;-65
2022/11/05 05:54:36;;;;;;;1999.90;999.90;;;7.20;99.90;;;;;;5054782;28;20176;-65
2022/11/05 05:57:02;;;;;;;1999.90;999.90;;;7.20;99.90;;;;;;5054520;28;20176;-66
2022/11/05 05:59:27;;;;;;;1999.90;999.90;;;7.20;99.90;;;;;;5054663;28;20233;-66
2022/11/05 06:01:53;;;;;;;1999.90;999.90;;;7.20;99.90;;;;;;5054543;28;20196;-65
2022/11/05 06:04:19;;;;;;;1999.90;999.90;;;7.10;99.90;;;;;;5054592;28;20175;-66
2022/11/05 06:06:45;;;;;;;1999.90;999.90;;;7.10;99.90;;;;;;5054172;28;20202;-65
2022/11/05 06:09:12;;;;;;;1999.90;999.90;;;7.00;99.90;;;;;;5054406;28;20781;-65
2022/11/05 06:11:37;;;;;;;1999.90;999.90;;;7.10;99.90;;;;;;5054385;28;20426;-65
2022/11/05 06:14:03;;;;;;;1999.90;999.90;;;7.10;99.90;;;;;;5054345;28;20413;-65
2022/11/05 06:16:34;;;;;;;1999.90;999.90;;;7.10;99.90;;;;;;5054400;28;21261;-65
2022/11/05 06:19:00;;;;;;;1999.90;999.90;;;7.10;99.90;;;;;;5054430;28;20254;-66
2022/11/05 06:21:26;;;;;;;1999.90;999.90;;;7.10;99.90;;;;;;5054611;28;20455;-66
2022/11/05 06:23:51;;;;;;;1999.90;999.90;;;7.10;99.90;;;;;;5054207;28;20898;-66
2022/11/05 06:26:17;;;;;;;1999.90;999.90;;;7.10;99.90;;;;;;5054033;28;20212;-66
2022/11/05 06:28:44;;;;;;;1999.90;999.90;;;7.10;99.90;;;;;;5053887;28;20179;-66
2022/11/05 06:31:11;;;;;;;1999.90;999.90;;;7.10;99.90;;;;;;5054017;28;20423;-66
2022/11/05 06:33:38;;;;;;;1999.90;999.90;;;7.10;99.90;;;;;;5054014;28;20399;-65
2022/11/05 06:36:05;;;;;;;1999.90;999.90;;;7.20;99.90;;;;;;5053850;28;20880;-66
2022/11/05 06:38:32;;;;;;;1999.90;999.90;;;7.10;99.90;;;;;;5054464;28;20490;-66
2022/11/05 06:40:58;;;;;;;1999.90;999.90;;;7.10;99.90;;;;;;5054461;28;20426;-65
2022/11/05 06:43:24;;;;;;;1999.90;999.90;;;7.20;99.90;;;;;;5054967;28;20474;-66
2022/11/05 06:45:50;;;;;;;1999.90;999.90;;;7.20;99.90;;;;;;5054833;28;20438;-64
2022/11/05 06:48:15;;;;;;;1999.90;999.90;;;7.20;99.90;;;;;;5053916;28;20453;-66
2022/11/05 06:50:45;;;;;;;1999.90;999.90;;;7.20;99.90;;;;;;5054119;28;20191;-65
2022/11/05 06:53:11;;;;;;;1999.90;999.90;;;7.20;99.90;;;;;;5054332;28;20160;-66
2022/11/05 06:55:37;;;;;;;1999.90;999.90;;;7.20;99.90;;;;;;5056154;28;20403;-65
2022/11/05 06:58:03;;;;;;;1999.90;999.90;;;7.20;99.90;;;;;;5055791;28;20998;-66
2022/11/05 07:00:28;;;;;;;1999.90;999.90;;;7.20;99.90;;;;;;5055601;28;20653;-65
2022/11/05 07:02:57;;;;;;;1999.90;999.90;;;7.30;99.90;;;;;;5055955;28;20202;-65
2022/11/05 07:05:23;;;;;;;1999.90;999.90;;;7.20;99.90;;;;;;5055418;28;20203;-66
2022/11/05 07:07:49;;;;;;;1999.90;999.90;;;7.30;99.90;;;;;;5055702;28;20536;-66
2022/11/05 07:10:16;;;;;;;1999.90;999.90;;;7.30;99.90;;;;;;5055734;28;20196;-65
2022/11/05 07:12:42;;;;;;;1999.90;999.90;;;7.40;99.90;;;;;;5055346;28;20178;-66
2022/11/05 07:15:09;;;;;;;1999.90;999.90;;;7.40;99.90;;;;;;5054735;28;20408;-66
2022/11/05 07:17:35;;;;;;;1999.90;999.90;;;7.50;99.90;;;;;;5053354;28;20418;-65
2022/11/05 07:20:01;;;;;;;1999.90;999.90;;;7.50;99.90;;;;;;5053470;28;20418;-65
2022/11/05 07:22:26;;;;;;;1999.90;999.90;;;7.50;99.90;;;;;;5054102;28;20179;-65
2022/11/05 07:24:52;;;;;;;1999.90;999.90;;;7.50;99.90;;;;;;5053608;28;20206;-65
2022/11/05 07:27:17;;;;;;;1999.90;999.90;;;7.60;99.90;;;;;;5053016;28;20249;-65
2022/11/05 07:29:43;;;;;;;1999.90;999.90;;;7.60;99.90;;;;;;5053039;28;20243;-65
2022/11/05 07:32:09;;;;;;;1999.90;999.90;;;7.50;99.90;;;;;;5053106;28;20653;-65
2022/11/05 07:34:34;;;;;;;1999.90;999.90;;;7.60;99.90;;;;;;5052879;28;20171;-65
2022/11/05 07:37:00;;;;;;;1999.90;999.90;;;7.60;99.90;;;;;;5052704;28;20606;-65
2022/11/05 07:39:25;;;;;;;1999.90;999.90;;;7.60;99.90;;;;;;5052987;28;20222;-65
2022/11/05 07:41:53;;;;;;;1999.90;999.90;;;7.70;99.90;;;;;;5053769;28;20196;-65
2022/11/05 07:44:19;;;;;;;1999.90;999.90;;;7.70;99.90;;;;;;5054666;28;20200;-66
2022/11/05 07:46:45;;;;;;;1999.90;999.90;;;7.70;99.90;;;;;;5053331;28;20461;-65
2022/11/05 07:49:10;;;;;;;1999.90;999.90;;;7.70;99.90;;;;;;5053978;28;20414;-66
2022/11/05 07:51:36;;;;;;;1999.90;999.90;;;7.80;99.90;;;;;;5053828;28;20193;-65
2022/11/05 07:54:02;;;;;;;1999.90;999.90;;;7.90;99.90;;;;;;5053137;28;20176;-65
2022/11/05 07:56:27;;;;;;;1999.90;999.90;;;7.90;99.90;;;;;;5053067;28;20176;-65
2022/11/05 07:58:53;;;;;;;1999.90;999.90;;;7.90;99.90;;;;;;5052929;28;20244;-65
2022/11/05 08:01:18;;;;;;;1999.90;999.90;;;8.00;99.90;;;;;;5053264;28;20200;-66
2022/11/05 08:03:44;;;;;;;1999.90;999.90;;;8.00;99.90;;;;;;5053266;28;20180;-66
2022/11/05 08:06:09;;;;;;;1999.90;999.90;;;8.00;99.90;;;;;;5053332;28;20605;-65
2022/11/05 08:08:35;;;;;;;1999.90;999.90;;;8.10;99.90;;;;;;5053063;28;20234;-66
2022/11/05 08:11:02;;;;;;;1999.90;999.90;;;8.10;99.90;;;;;;5053177;28;20211;-66
2022/11/05 08:13:28;;;;;;;1999.90;999.90;;;8.20;99.90;;;;;;5053666;28;20178;-65
2022/11/05 08:15:56;;;;;;;1999.90;999.90;;;8.30;99.90;;;;;;5052945;28;20429;-65
2022/11/05 08:18:22;;;;;;;1999.90;999.90;;;8.30;99.90;;;;;;5053188;28;20234;-66
2022/11/05 08:20:48;;;;;;;1999.90;999.90;;;8.40;99.90;;;;;;5053787;28;20985;-66
2022/11/05 08:23:14;;;;;;;1999.90;999.90;;;8.40;99.90;;;;;;5052320;28;20411;-65
2022/11/05 08:25:40;;;;;;;1999.90;999.90;;;8.50;99.90;;;;;;5051990;28;20181;-65
2022/11/05 08:28:09;;;;;;;1999.90;999.90;;;8.60;99.90;;;;;;5051530;28;20207;-65
2022/11/05 08:30:35;;;;;;;1999.90;999.90;;;8.60;99.90;;;;;;5051877;28;20464;-66
2022/11/05 08:33:04;;;;;;;1999.90;999.90;;;8.60;99.90;;;;;;5051797;28;20967;-66
2022/11/05 08:35:29;;;;;;;1999.90;999.90;;;8.70;99.90;;;;;;5052170;28;20396;-66
2022/11/05 08:38:00;;;;;;;1999.90;999.90;;;8.80;99.90;;;;;;5053000;28;20460;-65
2022/11/05 08:40:26;;;;;;;1999.90;999.90;;;8.80;99.90;;;;;;5051847;28;20188;-65
2022/11/05 08:42:55;;;;;;;1999.90;999.90;;;8.90;99.90;;;;;;5051998;28;20410;-65
2022/11/05 08:45:20;;;;;;;1999.90;999.90;;;9.00;99.90;;;;;;5051808;28;20411;-65
2022/11/05 08:47:46;;;;;;;1999.90;999.90;;;9.00;99.90;;;;;;5051452;28;20795;-65
2022/11/05 08:50:11;;;;;;;1999.90;999.90;;;9.10;99.90;;;;;;5051661;28;20245;-65
2022/11/05 08:52:39;;;;;;;1999.90;999.90;;;9.20;99.90;;;;;;5051751;28;20252;-65
2022/11/05 08:55:05;;;;;;;1999.90;999.90;;;9.20;99.90;;;;;;5051861;28;20201;-65
2022/11/05 08:57:31;;;;;;;1999.90;999.90;;;9.30;99.90;;;;;;5051483;28;20455;-66
2022/11/05 08:59:56;;;;;;;1999.90;999.90;;;9.30;99.90;;;;;;5051575;28;20400;-65
2022/11/05 09:02:22;;;;;;;1999.90;999.90;;;9.40;99.90;;;;;;5051677;28;20637;-65
2022/11/05 09:04:47;;;;;;;1999.90;999.90;;;9.40;99.90;;;;;;5054451;28;20552;-65
2022/11/05 09:07:13;;;;;;;1999.90;999.90;;;9.40;99.90;;;;;;5056300;28;20247;-66
2022/11/05 09:09:39;;;;;;;1999.90;999.90;;;9.50;99.90;;;;;;5055467;28;20205;-66
2022/11/05 09:12:04;;;;;;;1999.90;999.90;;;9.50;99.90;;;;;;5055456;28;20220;-65
2022/11/05 09:14:30;;;;;;;1999.90;999.90;;;9.60;99.90;;;;;;5055722;28;20169;-65
2022/11/05 09:16:56;;;;;;;1999.90;999.90;;;9.60;99.90;;;;;;5056174;28;20603;-65
2022/11/05 09:19:21;;;;;;;1999.90;999.90;;;9.60;99.90;;;;;;5054137;28;20410;-65
2022/11/05 09:21:47;;;;;;;1999.90;999.90;;;9.70;99.90;;;;;;5055206;28;20206;-65
2022/11/05 09:24:13;;;;;;;1999.90;999.90;;;9.70;99.90;;;;;;5055421;28;20173;-66
2022/11/05 09:26:38;;;;;;;1999.90;999.90;;;9.80;99.90;;;;;;5055255;28;20289;-66
2022/11/05 09:29:04;;;;;;;1999.90;999.90;;;9.90;99.90;;;;;;5055540;28;20178;-65
2022/11/05 09:31:29;;;;;;;1999.90;999.90;;;10.00;99.90;;;;;;5055684;28;20192;-66
2022/11/05 09:33:55;;;;;;;1999.90;999.90;;;10.00;99.90;;;;;;5056301;28;20170;-65
2022/11/05 09:36:20;;;;;;;1999.90;999.90;;;10.10;99.90;;;;;;5055202;28;20179;-65
2022/11/05 09:38:46;;;;;;;1999.90;999.90;;;10.20;99.90;;;;;;5054847;28;20169;-66
2022/11/05 09:41:34;;;;;;;1999.90;999.90;;;10.30;99.90;;;;;;5055086;28;20191;-65
2022/11/05 09:44:24;;;;;;;1999.90;999.90;;;10.40;99.90;;;;;;5055117;28;20179;-65
2022/11/05 09:47:01;;;;;;;1999.90;999.90;;;10.50;99.90;;;;;;5054618;28;20449;-66
2022/11/05 09:49:34;;;;;;;1999.90;999.90;;;10.40;99.90;;;;;;5054909;28;20439;-65
2022/11/05 09:52:00;;;;;;;1999.90;999.90;;;10.50;99.90;;;;;;5054889;28;20463;-65
2022/11/05 09:54:30;;;;;;;1999.90;999.90;;;10.50;99.90;;;;;;5054819;28;20402;-65
2022/11/05 09:56:58;;;;;;;1999.90;999.90;;;10.70;99.90;;;;;;5054646;28;20397;-65
2022/11/05 09:59:38;;;;;;;1999.90;999.90;;;10.80;99.90;;;;;;5055138;28;20414;-65
2022/11/05 10:02:23;;;;;;;1999.90;999.90;;;10.80;99.90;;;;;;5055118;28;20440;-65
2022/11/05 10:04:55;;;;;;;1999.90;999.90;;;11.00;99.90;;;;;;5055061;28;20771;-65
2022/11/05 10:07:24;;;;;;;1999.90;999.90;;;11.00;99.90;;;;;;5055095;28;20448;-65
2022/11/05 10:09:59;;;;;;;1999.90;999.90;;;11.20;99.90;;;;;;5055249;28;20504;-65
2022/11/05 10:12:29;;;;;;;1999.90;999.90;;;11.30;99.90;;;;;;5055148;28;20408;-66
2022/11/05 10:15:14;;;;;;;1999.90;999.90;;;11.40;99.90;;;;;;5054613;28;20421;-66
2022/11/05 10:17:45;;;;;;;1999.90;999.90;;;11.60;99.90;;;;;;5054814;28;20401;-65
2022/11/05 10:20:33;;;;;;;1999.90;999.90;;;11.70;99.90;;;;;;5054686;28;20498;-66
2022/11/05 10:23:15;;;;;;;1999.90;999.90;;;11.90;99.90;;;;;;5055257;28;20402;-66
2022/11/05 10:25:44;;;;;;;1999.90;999.90;;;12.10;99.90;;;;;;5054932;28;20429;-66
2022/11/05 10:28:16;;;;;;;1999.90;999.90;;;12.20;99.90;;;;;;5054283;28;20453;-65
2022/11/05 10:30:45;;;;;;;1999.90;999.90;;;12.30;99.90;;;;;;5054793;28;20505;-65
2022/11/05 10:33:13;;;;;;;1999.90;999.90;;;12.30;99.90;;;;;;5054873;28;20432;-66
2022/11/05 10:35:48;;;;;;;1999.90;999.90;;;12.40;99.90;;;;;;5055055;28;20417;-65
2022/11/05 10:38:14;;;;;;;1999.90;999.90;;;12.40;99.90;;;;;;5053618;28;20433;-65
2022/11/05 10:40:50;;;;;;;1999.90;999.90;;;12.40;99.90;;;;;;5054083;28;20414;-66
2022/11/05 10:43:23;;;;;;;1999.90;999.90;;;12.40;99.90;;;;;;5055496;28;20402;-66
2022/11/05 10:45:54;;;;;;;1999.90;999.90;;;12.50;99.90;;;;;;5055270;28;20452;-65
2022/11/05 10:48:31;;;;;;;1999.90;999.90;;;12.50;99.90;;;;;;5055790;28;20505;-66
2022/11/05 10:50:57;;;;;;;1999.90;999.90;;;12.50;99.90;;;;;;5056380;28;20794;-66
2022/11/05 10:53:28;;;;;;;1999.90;999.90;;;12.60;99.90;;;;;;5054323;28;20398;-65
2022/11/05 10:55:57;;;;;;;1999.90;999.90;;;12.70;99.90;;;;;;5054139;28;20474;-65
2022/11/05 10:58:27;;;;;;;1999.90;999.90;;;12.80;99.90;;;;;;5053644;28;20414;-65
2022/11/05 11:00:53;;;;;;;1999.90;999.90;;;12.90;99.90;;;;;;5053974;28;20418;-65
2022/11/05 11:03:40;;;;;;;1999.90;999.90;;;13.10;99.90;;;;;;5053871;28;20402;-66
2022/11/05 11:06:24;;;;;;;1999.90;999.90;;;13.20;99.90;;;;;;5054679;28;20821;-66
2022/11/05 11:08:51;;;;;;;1999.90;999.90;;;13.30;99.90;;;;;;5054281;28;20419;-66
2022/11/05 11:11:27;;;;;;;1999.90;999.90;;;13.60;99.90;;;;;;5054682;28;20407;-65
2022/11/05 11:13:56;;;;;;;1999.90;999.90;;;13.80;99.90;;;;;;5053810;28;20386;-65
2022/11/05 11:16:24;;;;;;;1999.90;999.90;;;14.00;99.90;;;;;;5053694;28;20383;-65
2022/11/05 11:19:02;;;;;;;1999.90;999.90;;;14.30;99.90;;;;;;5053090;28;20391;-65
2022/11/05 11:21:29;;;;;;;1999.90;999.90;;;14.80;99.90;;;;;;5052961;28;20446;-65
2022/11/05 11:24:03;;;;;;;1999.90;999.90;;;15.30;99.90;;;;;;5053051;28;20497;-65
2022/11/05 11:26:32;;;;;;;1999.90;999.90;;;15.70;99.90;;;;;;5052654;28;20397;-66
2022/11/05 11:29:15;;;;;;;1999.90;999.90;;;15.60;99.90;;;;;;5052768;28;20408;-65
2022/11/05 11:31:41;;;;;;;1999.90;999.90;;;15.30;99.90;;;;;;5052947;28;20431;-65
2022/11/05 11:34:28;;;;;;;1999.90;999.90;;;14.80;99.90;;;;;;5052936;28;20890;-65
2022/11/05 11:37:16;;;;;;;1999.90;999.90;;;14.10;99.90;;;;;;5052577;28;20172;-65
2022/11/05 11:39:47;;;;;;;1999.90;999.90;;;13.70;99.90;;;;;;5053004;28;20414;-65
2022/11/05 11:42:22;;;;;;;1999.90;999.90;;;13.50;99.90;;;;;;5052671;28;20422;-66
2022/11/05 11:44:49;;;;;;;1999.90;999.90;;;13.20;99.90;;;;;;5052787;28;20406;-64
2022/11/05 11:47:17;;;;;;;1999.90;999.90;;;13.10;99.90;;;;;;5052409;28;20458;-65
2022/11/05 11:49:44;;;;;;;1999.90;999.90;;;12.90;99.90;;;;;;5052549;28;20395;-65
2022/11/05 11:52:14;;;;;;;1999.90;999.90;;;12.80;99.90;;;;;;5053152;28;21192;-65
2022/11/05 11:54:39;;;;;;;1999.90;999.90;;;12.70;99.90;;;;;;5054271;28;20394;-65
2022/11/05 11:57:24;;;;;;;1999.90;999.90;;;12.70;99.90;;;;;;5054130;28;20417;-66
2022/11/05 11:59:50;;;;;;;1999.90;999.90;;;12.70;99.90;;;;;;5054046;28;20171;-65
2022/11/05 12:02:28;;;;;;;1999.90;999.90;;;12.70;99.90;;;;;;5053217;28;20460;-65
2022/11/05 12:05:17;;;;;;;1999.90;999.90;;;12.60;99.90;;;;;;5053377;28;20795;-66
2022/11/05 12:07:49;;;;;;;1999.90;999.90;;;12.70;99.90;;;;;;5048343;28;20441;-65
2022/11/05 12:11:07;;;;;;;1999.90;999.90;;;12.70;99.90;;;;;;5051881;28;20420;-66
2022/11/05 12:13:59;;;;;;;1999.90;999.90;;;12.70;99.90;;;;;;5042625;28;20433;-66
2022/11/05 12:16:27;;;;;;;1999.90;999.90;;;12.80;99.90;;;;;;5043363;28;20418;-65
2022/11/05 12:19:09;;;;;;;1999.90;999.90;;;12.70;99.90;;;;;;5051553;28;20412;-65
2022/11/05 12:22:12;;;;;;;1999.90;999.90;;;12.80;99.90;;;;;;5051227;28;20470;-65
2022/11/05 12:24:40;;;;;;;1999.90;999.90;;;12.70;99.90;;;;;;5051796;28;20825;-66
2022/11/05 12:27:25;;;;;;;1999.90;999.90;;;12.90;99.90;;;;;;5051269;28;20503;-66
2022/11/05 12:29:58;;;;;;;1999.90;999.90;;;13.00;99.90;;;;;;5057280;28;20406;-65
2022/11/05 12:32:39;;;;;;;1999.90;999.90;;;13.10;99.90;;;;;;5071672;28;20395;-65
2022/11/05 12:35:44;;;;;;;1999.90;999.90;;;13.10;99.90;;;;;;5071678;28;20404;-65
2022/11/05 12:38:18;;;;;;;1999.90;999.90;;;13.30;99.90;;;;;;5070739;28;20827;-65
2022/11/05 12:40:49;;;;;;;1999.90;999.90;;;13.30;99.90;;;;;;5071485;28;20471;-65
2022/11/05 12:43:36;;;;;;;1999.90;999.90;;;13.40;99.90;;;;;;5071581;28;20407;-65
2022/11/05 12:46:20;;;;;;;1999.90;999.90;;;13.50;99.90;;;;;;5071740;28;20395;-65
2022/11/05 12:48:51;;;;;;;1999.90;999.90;;;13.70;99.90;;;;;;5071183;28;20414;-65
2022/11/05 12:51:30;;;;;;;1999.90;999.90;;;13.80;99.90;;;;;;5070987;28;20832;-66
2022/11/05 12:54:07;;;;;;;1999.90;999.90;;;14.00;99.90;;;;;;5071535;28;20452;-65
2022/11/05 12:56:56;;;;;;;1999.90;999.90;;;14.20;99.90;;;;;;5071428;28;20415;-65
2022/11/05 12:59:46;;;;;;;1999.90;999.90;;;14.40;99.90;;;;;;5070559;28;20465;-66
2022/11/05 13:02:28;;;;;;;1999.90;999.90;;;14.70;99.90;;;;;;5071117;28;20416;-65
2022/11/05 13:05:12;;;;;;;1999.90;999.90;;;14.90;99.90;;;;;;5071318;28;20397;-66
2022/11/05 13:07:45;;;;;;;1999.90;999.90;;;15.00;99.90;;;;;;5071609;28;20815;-67
2022/11/05 13:10:35;;;;;;;1999.90;999.90;;;14.90;99.90;;;;;;5054695;28;20522;-67
2022/11/05 13:13:13;;;;;;;1999.90;999.90;;;14.60;99.90;;;;;;5050576;28;21102;-67